Time;durP1;ratioP1;P1;durP2;ratioP2;P2;SDS_P1;SDS_P2;PMS_P1;PMS_P2;Temp;Humidity;BMP_temperature;BMP_pressure;BME280_temperature;BME280_humidity;BME280_pressure;Samples;Min_cycle;Max_cycle;Signal;HPM_P1;HPM_P2
2023/04/26 00:02:35;;;;;;;28.57;3.20;;;5.60;99.90;;;;;;4996341;28;20474;-76
2023/04/26 00:05:06;;;;;;;2.43;1.67;;;5.50;99.90;;;;;;4999507;28;20500;-73
2023/04/26 00:07:37;;;;;;;4.70;2.00;;;5.30;99.90;;;;;;4988152;28;20504;-76
2023/04/26 00:10:16;;;;;;;2.40;1.50;;;5.20;99.90;;;;;;5007569;28;20524;-76
2023/04/26 00:12:57;;;;;;;4.80;2.07;;;5.30;99.90;;;;;;5002300;28;20479;-76
2023/04/26 00:15:36;;;;;;;10.73;3.10;;;5.20;99.90;;;;;;5010295;28;20453;-72
2023/04/26 00:18:29;;;;;;;3.43;1.90;;;5.10;99.90;;;;;;5007904;28;20446;-76
2023/04/26 00:21:03;;;;;;;3.83;2.23;;;5.10;99.90;;;;;;5000356;28;20809;-75
2023/04/26 00:23:57;;;;;;;2.10;1.47;;;5.20;99.90;;;;;;4994705;28;20471;-76
2023/04/26 00:26:48;;;;;;;2.17;1.53;;;5.30;99.90;;;;;;5004089;28;20459;-75
2023/04/26 00:29:22;;;;;;;2.43;2.00;;;5.20;99.90;;;;;;4946332;28;20442;-75
2023/04/26 00:31:50;;;;;;;4.20;2.40;;;5.20;99.90;;;;;;4999700;28;20550;-75
2023/04/26 00:34:18;;;;;;;1.83;1.73;;;5.10;99.90;;;;;;5007565;28;20526;-75
2023/04/26 00:36:45;;;;;;;2.93;1.80;;;4.80;99.90;;;;;;5015638;28;20466;-74
2023/04/26 00:39:15;;;;;;;2.50;2.03;;;4.70;99.90;;;;;;5014274;28;20560;-75
2023/04/26 00:41:42;;;;;;;5.47;2.77;;;4.90;99.90;;;;;;5006093;28;21018;-73
2023/04/26 00:44:09;;;;;;;6.27;2.50;;;5.00;99.90;;;;;;5003945;28;20502;-74
2023/04/26 00:46:36;;;;;;;4.40;1.97;;;5.00;99.90;;;;;;5009199;28;20496;-75
2023/04/26 00:49:03;;;;;;;8.13;2.33;;;5.00;99.90;;;;;;5013226;28;20656;-75
2023/04/26 00:51:32;;;;;;;2.73;1.73;;;4.80;99.90;;;;;;5009626;28;20984;-76
2023/04/26 00:54:00;;;;;;;2.30;2.10;;;4.80;99.90;;;;;;5007958;28;20971;-75
2023/04/26 00:56:28;;;;;;;2.10;1.37;;;4.80;99.90;;;;;;5007866;28;20899;-75
2023/04/26 00:58:55;;;;;;;3.00;1.53;;;5.00;99.90;;;;;;5006412;28;20514;-73
2023/04/26 01:01:22;;;;;;;5.27;2.40;;;4.80;99.90;;;;;;5003194;28;20458;-75
2023/04/26 01:03:49;;;;;;;2.80;2.00;;;4.60;99.90;;;;;;5003055;28;20468;-74
2023/04/26 01:06:17;;;;;;;3.93;1.93;;;4.50;99.90;;;;;;5010395;28;20482;-74
2023/04/26 01:08:45;;;;;;;3.60;2.07;;;4.60;99.90;;;;;;4980696;28;20806;-74
2023/04/26 01:11:14;;;;;;;1.60;1.40;;;4.70;99.90;;;;;;5009772;28;20527;-75
2023/04/26 01:13:42;;;;;;;4.27;2.17;;;4.60;99.90;;;;;;5007439;28;20503;-76
2023/04/26 01:16:09;;;;;;;11.03;1.50;;;4.50;99.90;;;;;;5014352;28;20985;-74
2023/04/26 01:18:36;;;;;;;2.93;2.10;;;4.50;99.90;;;;;;5004134;28;20944;-74
2023/04/26 01:21:04;;;;;;;5.27;2.67;;;4.60;99.90;;;;;;5002155;28;20477;-74
2023/04/26 01:23:34;;;;;;;2.33;1.77;;;4.70;99.90;;;;;;5006368;28;20575;-74
2023/04/26 01:26:01;;;;;;;3.80;1.67;;;4.70;99.90;;;;;;5006272;28;20439;-75
2023/04/26 01:28:28;;;;;;;4.60;1.57;;;4.60;99.90;;;;;;5016734;28;20436;-74
2023/04/26 01:30:55;;;;;;;14.53;2.43;;;4.60;99.90;;;;;;5008850;28;20856;-73
2023/04/26 01:33:22;;;;;;;5.20;3.00;;;4.60;99.90;;;;;;5004040;28;20564;-74
2023/04/26 01:35:50;;;;;;;2.60;1.93;;;4.70;99.90;;;;;;4984376;28;21024;-72
2023/04/26 01:38:18;;;;;;;5.17;2.33;;;4.60;99.90;;;;;;5002929;28;20447;-74
2023/04/26 01:40:47;;;;;;;5.07;2.27;;;4.50;99.90;;;;;;5006735;28;20465;-75
2023/04/26 01:43:17;;;;;;;3.90;2.03;;;4.50;99.90;;;;;;5008105;28;20452;-70
2023/04/26 01:45:48;;;;;;;1.33;1.23;;;4.40;99.90;;;;;;5001112;28;20701;-74
2023/04/26 01:48:15;;;;;;;5.57;1.97;;;4.30;99.90;;;;;;5003119;28;20540;-75
2023/04/26 01:50:42;;;;;;;2.00;1.37;;;4.30;99.90;;;;;;4986855;28;20566;-73
2023/04/26 01:53:09;;;;;;;4.53;2.13;;;4.20;99.90;;;;;;5000670;28;20445;-74
2023/04/26 01:55:36;;;;;;;3.77;2.03;;;4.10;99.90;;;;;;5011288;28;20440;-76
2023/04/26 01:58:05;;;;;;;3.67;2.17;;;4.10;99.90;;;;;;5007886;28;20547;-74
2023/04/26 02:00:33;;;;;;;2.30;1.60;;;4.10;99.90;;;;;;5001332;28;20507;-75
2023/04/26 02:03:03;;;;;;;3.50;1.73;;;4.10;99.90;;;;;;5001400;28;20960;-74
2023/04/26 02:05:31;;;;;;;1.70;1.27;;;4.10;99.90;;;;;;5005937;28;20489;-75
2023/04/26 02:07:58;;;;;;;2.87;1.70;;;4.00;99.90;;;;;;5003972;28;20439;-75
2023/04/26 02:10:26;;;;;;;5.03;2.37;;;4.00;99.90;;;;;;5005282;28;20437;-75
2023/04/26 02:12:56;;;;;;;2.37;2.17;;;3.90;99.90;;;;;;5008081;28;21003;-73
2023/04/26 02:15:24;;;;;;;8.63;2.40;;;3.90;99.90;;;;;;5007224;28;21154;-76
2023/04/26 02:17:52;;;;;;;3.50;2.90;;;3.80;99.90;;;;;;5017286;28;20502;-73
2023/04/26 02:20:19;;;;;;;2.20;1.43;;;3.70;99.90;;;;;;5010709;28;20559;-74
2023/04/26 02:22:46;;;;;;;2.33;1.80;;;3.80;99.90;;;;;;5006832;28;20580;-75
2023/04/26 02:25:15;;;;;;;4.80;1.70;;;4.00;99.90;;;;;;5000489;28;20432;-75
2023/04/26 02:27:42;;;;;;;3.30;2.60;;;4.10;99.90;;;;;;5001483;28;20433;-75
2023/04/26 02:30:10;;;;;;;3.60;2.07;;;4.00;99.90;;;;;;5001804;28;20460;-74
2023/04/26 02:32:39;;;;;;;4.50;2.40;;;4.00;99.90;;;;;;4983152;28;20443;-76
2023/04/26 02:35:06;;;;;;;5.57;2.00;;;4.00;99.90;;;;;;4997867;28;20617;-75
2023/04/26 02:37:33;;;;;;;5.13;2.20;;;4.00;99.90;;;;;;5014869;28;20511;-74
2023/04/26 02:40:01;;;;;;;1.70;1.47;;;3.90;99.90;;;;;;5003292;28;20548;-75
2023/04/26 02:42:28;;;;;;;2.00;1.90;;;3.90;99.90;;;;;;5001125;28;20520;-75
2023/04/26 02:44:55;;;;;;;12.93;2.30;;;3.90;99.90;;;;;;4997757;28;20497;-74
2023/04/26 02:47:22;;;;;;;10.70;2.73;;;4.00;99.90;;;;;;5007327;28;20496;-75
2023/04/26 02:49:51;;;;;;;2.70;2.07;;;4.00;99.90;;;;;;4995195;28;21010;-75
2023/04/26 02:52:18;;;;;;;5.37;2.57;;;4.00;99.90;;;;;;5010937;28;20432;-75
2023/04/26 02:54:47;;;;;;;5.70;2.37;;;3.90;99.90;;;;;;5009208;28;20444;-72
2023/04/26 02:57:16;;;;;;;4.40;2.60;;;4.00;99.90;;;;;;5008004;28;20519;-75
2023/04/26 02:59:43;;;;;;;3.30;2.27;;;3.90;99.90;;;;;;5008113;28;20462;-74
2023/04/26 03:02:10;;;;;;;24.03;2.43;;;4.00;99.90;;;;;;5006123;28;20464;-74
2023/04/26 03:04:38;;;;;;;7.20;2.07;;;4.00;99.90;;;;;;5008987;28;20462;-75
2023/04/26 03:07:07;;;;;;;2.33;2.13;;;4.00;99.90;;;;;;5014099;28;20999;-75
2023/04/26 03:09:37;;;;;;;6.63;3.50;;;4.00;99.90;;;;;;4978938;28;20889;-75
2023/04/26 03:12:06;;;;;;;3.80;2.10;;;4.00;99.90;;;;;;5022059;28;20455;-75
2023/04/26 03:14:34;;;;;;;6.00;2.97;;;3.90;99.90;;;;;;5011504;28;20538;-74
2023/04/26 03:17:01;;;;;;;5.57;2.63;;;3.90;99.90;;;;;;5012853;28;20908;-75
2023/04/26 03:19:28;;;;;;;3.07;2.00;;;3.90;99.90;;;;;;4980048;28;20531;-74
2023/04/26 03:21:56;;;;;;;3.20;1.80;;;3.90;99.90;;;;;;5002641;28;20561;-75
2023/04/26 03:24:24;;;;;;;6.27;2.77;;;3.70;99.90;;;;;;4963599;28;20508;-75
2023/04/26 03:26:52;;;;;;;2.90;2.50;;;3.80;99.90;;;;;;5014155;28;20449;-75
2023/04/26 03:29:19;;;;;;;4.90;3.10;;;3.70;99.90;;;;;;5002794;28;20492;-72
2023/04/26 03:31:46;;;;;;;4.90;3.10;;;3.70;99.90;;;;;;5008033;28;20489;-74
2023/04/26 03:34:13;;;;;;;3.00;1.93;;;3.80;99.90;;;;;;5003704;28;20473;-75
2023/04/26 03:36:40;;;;;;;3.73;2.00;;;3.80;99.90;;;;;;5009119;28;20961;-74
2023/04/26 03:39:08;;;;;;;3.93;3.20;;;3.80;99.90;;;;;;4996466;28;20820;-76
2023/04/26 03:41:38;;;;;;;5.70;2.83;;;3.80;99.90;;;;;;4977274;28;20493;-76
2023/04/26 03:44:06;;;;;;;3.77;2.57;;;3.80;99.90;;;;;;4997827;28;20575;-75
2023/04/26 03:46:32;;;;;;;11.03;4.10;;;3.80;99.90;;;;;;5013423;28;20494;-75
2023/04/26 03:48:59;;;;;;;5.13;3.43;;;3.70;99.90;;;;;;5009888;28;20520;-76
2023/04/26 03:51:27;;;;;;;3.00;2.53;;;3.50;99.90;;;;;;5010644;28;20526;-75
2023/04/26 03:53:57;;;;;;;5.73;3.13;;;3.40;99.90;;;;;;5000842;28;20538;-75
2023/04/26 03:56:25;;;;;;;7.73;3.43;;;3.40;99.90;;;;;;5012859;28;20546;-72
2023/04/26 03:58:53;;;;;;;4.70;1.87;;;3.40;99.90;;;;;;5006563;28;20490;-77
2023/04/26 04:01:20;;;;;;;4.93;2.83;;;3.40;99.90;;;;;;5013420;28;20501;-75
2023/04/26 04:03:47;;;;;;;8.23;4.00;;;3.40;99.90;;;;;;5000081;28;22398;-74
2023/04/26 04:06:14;;;;;;;4.60;4.10;;;3.50;99.90;;;;;;5003813;28;20560;-73
2023/04/26 04:08:42;;;;;;;6.63;2.53;;;3.60;99.90;;;;;;5007310;28;20876;-70
2023/04/26 04:11:11;;;;;;;2.33;2.13;;;3.70;99.90;;;;;;5022991;28;20477;-75
2023/04/26 04:13:38;;;;;;;5.97;3.97;;;3.70;99.90;;;;;;5000913;28;20574;-74
2023/04/26 04:16:09;;;;;;;3.53;2.60;;;3.70;99.90;;;;;;4999654;28;20437;-75
2023/04/26 04:18:36;;;;;;;7.03;3.27;;;3.70;99.90;;;;;;5001103;28;20495;-75
2023/04/26 04:21:04;;;;;;;3.53;2.83;;;3.50;99.90;;;;;;5007216;28;20928;-74
2023/04/26 04:23:34;;;;;;;4.43;2.80;;;3.50;99.90;;;;;;5000587;28;20535;-76
2023/04/26 04:26:04;;;;;;;4.60;2.17;;;3.60;99.90;;;;;;5002977;28;20488;-75
2023/04/26 04:28:35;;;;;;;3.90;3.50;;;3.50;99.90;;;;;;5007060;28;20428;-75
2023/04/26 04:31:02;;;;;;;3.63;2.50;;;3.40;99.90;;;;;;4992144;28;20445;-75
2023/04/26 04:33:31;;;;;;;4.80;3.10;;;3.50;99.90;;;;;;5002433;28;20470;-75
2023/04/26 04:35:59;;;;;;;7.90;3.47;;;3.50;99.90;;;;;;4999994;28;20957;-75
2023/04/26 04:38:28;;;;;;;7.97;3.37;;;3.50;99.90;;;;;;4997591;28;20484;-74
2023/04/26 04:40:55;;;;;;;8.27;3.23;;;3.50;99.90;;;;;;4968570;28;20463;-75
2023/04/26 04:43:22;;;;;;;6.63;3.27;;;3.70;99.90;;;;;;4983580;28;20574;-75
2023/04/26 04:45:54;;;;;;;10.50;4.53;;;3.60;99.90;;;;;;5000016;28;20464;-75
2023/04/26 04:48:25;;;;;;;3.43;3.10;;;3.50;99.90;;;;;;4990502;28;20445;-73
2023/04/26 04:50:57;;;;;;;7.53;3.30;;;3.50;99.90;;;;;;4991744;28;20822;-75
2023/04/26 04:53:24;;;;;;;9.47;4.97;;;3.60;99.90;;;;;;5005363;28;20471;-74
2023/04/26 04:55:51;;;;;;;7.10;3.30;;;3.90;99.90;;;;;;4998310;28;20528;-74
2023/04/26 04:58:18;;;;;;;10.30;2.90;;;4.00;99.90;;;;;;5004960;28;20508;-73
2023/04/26 05:00:47;;;;;;;6.67;3.70;;;4.10;99.90;;;;;;5003247;28;20524;-75
2023/04/26 05:03:14;;;;;;;12.33;3.73;;;4.10;99.90;;;;;;4989998;28;20568;-74
2023/04/26 05:05:41;;;;;;;7.70;4.47;;;4.30;99.90;;;;;;5019744;28;20489;-73
2023/04/26 05:08:15;;;;;;;8.67;4.40;;;4.50;99.90;;;;;;4997186;28;20839;-75
2023/04/26 05:10:42;;;;;;;8.87;4.30;;;4.80;99.90;;;;;;5010655;28;20431;-76
2023/04/26 05:13:09;;;;;;;11.03;5.20;;;5.10;99.90;;;;;;5008656;28;20922;-75
2023/04/26 05:15:39;;;;;;;3.93;3.00;;;5.50;99.90;;;;;;5007936;28;20448;-75
2023/04/26 05:18:06;;;;;;;5.30;3.43;;;5.80;99.90;;;;;;5007727;28;20495;-76
2023/04/26 05:20:33;;;;;;;11.03;4.40;;;6.00;99.90;;;;;;5016536;28;20468;-74
2023/04/26 05:26:14;;;;;;;10.93;4.57;;;6.50;99.90;;;;;;4968908;28;20547;-75
2023/04/26 05:29:04;;;;;;;;;;;;;;;;;;;;;
2023/04/26 05:32:12;;;;;;;7.57;4.40;;;7.10;99.90;;;;;;4992521;28;20457;-76
2023/04/26 05:34:44;;;;;;;5.27;3.50;;;7.20;99.90;;;;;;4941511;28;20461;-75
2023/04/26 05:37:16;;;;;;;5.37;4.30;;;7.60;99.90;;;;;;5016308;28;20926;-76
2023/04/26 05:40:03;;;;;;;6.30;4.60;;;7.50;99.90;;;;;;5013287;28;20507;-76
2023/04/26 05:42:32;;;;;;;6.77;4.77;;;7.70;99.90;;;;;;5011247;28;20773;-77
2023/04/26 05:45:06;;;;;;;7.87;4.67;;;7.90;99.90;;;;;;4982650;28;20461;-75
2023/04/26 05:48:00;;;;;;;7.27;4.23;;;8.30;99.90;;;;;;5007699;28;20961;-76
2023/04/26 05:50:49;;;;;;;10.03;6.10;;;8.50;99.90;;;;;;5004968;28;20466;-76
2023/04/26 05:53:22;;;;;;;15.63;5.80;;;8.70;99.90;;;;;;4997495;28;20481;-76
2023/04/26 05:55:53;;;;;;;12.60;8.23;;;8.70;99.90;;;;;;5004606;28;20465;-76
2023/04/26 05:58:35;;;;;;;13.50;6.70;;;9.00;99.90;;;;;;5009635;28;20612;-75
2023/04/26 06:01:05;;;;;;;13.53;5.70;;;9.30;99.90;;;;;;5012794;28;20453;-75
2023/04/26 06:03:33;;;;;;;6.43;5.10;;;9.40;99.90;;;;;;5024021;28;20849;-76
2023/04/26 06:06:03;;;;;;;6.70;3.30;;;9.40;99.90;;;;;;5003160;28;20472;-76
2023/04/26 06:08:30;;;;;;;10.10;5.57;;;9.50;99.90;;;;;;5008287;28;20492;-77
2023/04/26 06:11:08;;;;;;;10.40;5.80;;;9.80;99.90;;;;;;5004791;28;20512;-76
2023/04/26 06:13:39;;;;;;;12.90;5.87;;;10.00;99.90;;;;;;5003190;28;20480;-77
2023/04/26 06:16:07;;;;;;;9.67;4.83;;;10.00;99.90;;;;;;5004866;28;20968;-75
2023/04/26 06:18:37;;;;;;;5.60;3.80;;;9.80;99.90;;;;;;5002866;28;20495;-76
2023/04/26 06:21:08;;;;;;;10.03;3.60;;;9.50;99.90;;;;;;4991128;28;20455;-75
2023/04/26 06:26:48;;;;;;;11.10;4.47;;;9.80;99.90;;;;;;4998626;28;21318;-75
2023/04/26 06:29:17;;;;;;;4.50;3.00;;;9.70;99.90;;;;;;5001473;28;20464;-76
2023/04/26 06:31:59;;;;;;;8.00;3.90;;;10.00;99.90;;;;;;4999606;28;20471;-76
2023/04/26 06:35:18;;;;;;;7.10;3.73;;;9.90;99.90;;;;;;4999475;28;21163;-76
2023/04/26 06:37:57;;;;;;;9.47;4.00;;;10.30;99.90;;;;;;5008502;28;21095;-77
2023/04/26 06:40:37;;;;;;;5.70;4.63;;;10.40;99.90;;;;;;5010474;28;20488;-76
2023/04/26 06:43:22;;;;;;;7.53;3.40;;;10.60;99.90;;;;;;4986944;28;20488;-76
2023/04/26 06:46:37;;;;;;;13.90;6.03;;;11.00;99.90;;;;;;5007368;28;20650;-77
2023/04/26 06:49:41;;;;;;;4.80;3.90;;;11.40;99.90;;;;;;5003309;28;20540;-75
2023/04/26 06:52:12;;;;;;;7.10;3.90;;;12.10;99.90;;;;;;4999938;28;20832;-75
2023/04/26 06:54:53;;;;;;;5.90;4.00;;;12.50;99.90;;;;;;5007376;28;20474;-76
2023/04/26 06:57:28;;;;;;;6.23;3.57;;;12.80;99.90;;;;;;5007711;28;20556;-76
2023/04/26 07:00:16;;;;;;;7.53;4.30;;;12.90;99.90;;;;;;5012899;28;20489;-76
2023/04/26 07:02:47;;;;;;;6.10;3.93;;;13.00;99.90;;;;;;4998834;28;20892;-77
2023/04/26 07:05:19;;;;;;;7.77;4.83;;;12.90;99.90;;;;;;5011386;28;20544;-76
2023/04/26 07:07:57;;;;;;;4.87;3.70;;;12.70;99.90;;;;;;5010245;28;20500;-76
2023/04/26 07:10:26;;;;;;;6.67;4.20;;;12.70;99.90;;;;;;5003286;28;20465;-76
2023/04/26 07:12:53;;;;;;;7.03;3.37;;;12.70;99.90;;;;;;5006055;28;20479;-77
2023/04/26 07:15:20;;;;;;;7.10;3.47;;;13.10;99.90;;;;;;5004322;28;20465;-76
2023/04/26 07:17:53;;;;;;;13.33;4.57;;;13.20;99.90;;;;;;5006439;28;20551;-74
2023/04/26 07:20:23;;;;;;;4.40;3.50;;;13.40;99.90;;;;;;5001301;28;20545;-75
2023/04/26 07:23:02;;;;;;;4.83;2.17;;;13.50;99.90;;;;;;5002039;28;20530;-75
2023/04/26 07:25:29;;;;;;;12.50;3.43;;;13.50;99.90;;;;;;5004865;28;20532;-76
2023/04/26 07:27:59;;;;;;;6.47;3.17;;;13.30;99.90;;;;;;5008258;28;20457;-76
2023/04/26 07:30:31;;;;;;;4.17;3.10;;;12.60;99.90;;;;;;5003724;28;20492;-75
2023/04/26 07:33:00;;;;;;;5.77;3.50;;;12.90;99.90;;;;;;5005113;28;20487;-76
2023/04/26 07:35:29;;;;;;;5.97;3.43;;;12.80;99.90;;;;;;5008365;28;20480;-76
2023/04/26 07:37:59;;;;;;;8.67;3.20;;;12.80;99.90;;;;;;5006256;28;20468;-76
2023/04/26 07:40:28;;;;;;;3.40;2.93;;;12.90;99.90;;;;;;5001914;28;20915;-76
2023/04/26 07:42:55;;;;;;;7.33;4.17;;;13.00;99.90;;;;;;5001455;28;20481;-75
2023/04/26 07:45:22;;;;;;;5.70;3.00;;;13.10;99.90;;;;;;4999686;28;20432;-74
2023/04/26 07:50:38;;;;;;;2.43;1.87;;;13.30;99.90;;;;;;5002086;28;20515;-74
2023/04/26 07:53:07;;;;;;;8.33;2.97;;;13.40;99.90;;;;;;5000705;28;20553;-75
2023/04/26 07:55:37;;;;;;;3.87;2.87;;;13.30;99.90;;;;;;5015604;28;20453;-75
2023/04/26 08:00:59;;;;;;;10.27;3.07;;;13.70;99.90;;;;;;4980984;28;20480;-75
2023/04/26 08:03:41;;;;;;;6.47;2.67;;;13.20;99.90;;;;;;5001635;28;20482;-74
2023/04/26 08:09:36;;;;;;;7.47;3.03;;;13.20;99.90;;;;;;4983891;28;20477;-75
2023/04/26 08:12:30;;;;;;;9.30;3.93;;;13.20;99.90;;;;;;5008220;28;20503;-74
2023/04/26 08:15:03;;;;;;;9.67;2.37;;;13.40;99.90;;;;;;4965325;28;20923;-74
2023/04/26 08:17:43;;;;;;;2.50;1.70;;;12.80;99.90;;;;;;5000943;28;20442;-75
2023/04/26 08:20:21;;;;;;;3.47;2.90;;;12.40;99.90;;;;;;4992984;28;20481;-74
2023/04/26 08:22:55;;;;;;;3.60;2.00;;;12.10;99.90;;;;;;4997934;28;20536;-75
2023/04/26 08:25:22;;;;;;;2.77;1.57;;;11.70;99.90;;;;;;5000597;28;20453;-74
2023/04/26 08:27:51;;;;;;;3.00;1.30;;;11.00;99.90;;;;;;5002090;28;20481;-74
2023/04/26 08:30:21;;;;;;;7.20;3.43;;;10.80;99.90;;;;;;5001991;28;20523;-74
2023/04/26 08:32:49;;;;;;;4.87;2.30;;;10.70;99.90;;;;;;5006933;28;20504;-74
2023/04/26 08:35:18;;;;;;;2.47;1.57;;;10.60;99.90;;;;;;5005591;28;20622;-74
2023/04/26 08:37:46;;;;;;;3.13;2.67;;;10.70;99.90;;;;;;4959595;28;20913;-74
2023/04/26 08:40:25;;;;;;;2.60;1.97;;;11.10;99.90;;;;;;4999045;28;20568;-75
2023/04/26 08:42:52;;;;;;;2.67;1.70;;;11.60;99.90;;;;;;5000059;28;20485;-76
2023/04/26 08:45:21;;;;;;;2.70;1.67;;;12.50;99.90;;;;;;5005685;28;20503;-77
2023/04/26 08:47:50;;;;;;;1.60;1.43;;;12.90;99.90;;;;;;5011527;28;20492;-74
2023/04/26 08:50:20;;;;;;;1.60;1.20;;;13.40;99.90;;;;;;5005764;28;20560;-71
2023/04/26 08:53:15;;;;;;;1.40;1.10;;;14.20;98.20;;;;;;5018424;28;20855;-75
2023/04/26 08:56:07;;;;;;;1.50;0.90;;;14.50;95.80;;;;;;5002617;28;20842;-75
2023/04/26 09:02:23;;;;;;;1.53;1.43;;;14.80;94.50;;;;;;4929091;29;20449;-75
2023/04/26 09:08:51;;;;;;;4.87;2.53;;;15.60;93.70;;;;;;4991256;28;20509;-74
2023/04/26 09:12:20;;;;;;;4.47;2.60;;;14.30;96.10;;;;;;5027240;28;20500;-75
2023/04/26 09:14:53;;;;;;;1.90;1.40;;;13.30;95.40;;;;;;5024660;28;20555;-74
2023/04/26 09:17:30;;;;;;;2.90;1.70;;;13.10;97.50;;;;;;5030912;28;20547;-76
2023/04/26 09:19:58;;;;;;;6.17;3.13;;;13.50;95.60;;;;;;5038134;28;20477;-73
2023/04/26 09:22:31;;;;;;;2.23;1.60;;;13.70;94.40;;;;;;5032362;28;20493;-74
2023/04/26 09:25:10;;;;;;;4.63;2.40;;;14.10;94.60;;;;;;5029228;28;20461;-76
2023/04/26 09:27:45;;;;;;;3.67;2.43;;;15.50;95.60;;;;;;5030291;28;20879;-76
2023/04/26 09:30:23;;;;;;;2.20;1.50;;;16.50;90.50;;;;;;5011465;28;20449;-74
2023/04/26 09:32:54;;;;;;;3.20;1.60;;;15.80;90.70;;;;;;5021673;28;20574;-75
2023/04/26 09:35:30;;;;;;;2.70;1.50;;;15.30;90.00;;;;;;5025364;28;20815;-76
2023/04/26 09:38:21;;;;;;;2.90;1.50;;;14.60;92.10;;;;;;5039673;28;20491;-72
2023/04/26 09:41:02;;;;;;;10.90;2.47;;;14.10;92.00;;;;;;5018454;28;20495;-75
2023/04/26 09:43:41;;;;;;;3.63;2.60;;;13.80;91.80;;;;;;5024059;28;20564;-74
2023/04/26 09:46:13;;;;;;;1.63;1.47;;;13.20;92.70;;;;;;5024975;28;21069;-75
2023/04/26 09:48:40;;;;;;;3.90;2.80;;;12.80;93.20;;;;;;5037835;28;20444;-75
2023/04/26 09:51:11;;;;;;;1.73;1.60;;;12.00;95.60;;;;;;5022137;28;20468;-74
2023/04/26 09:53:40;;;;;;;3.83;1.93;;;11.60;96.30;;;;;;5018767;28;20590;-75
2023/04/26 09:56:12;;;;;;;8.60;2.40;;;11.20;97.00;;;;;;5020264;28;20431;-74
2023/04/26 09:58:57;;;;;;;1.97;1.70;;;11.30;97.50;;;;;;5025633;28;20469;-74
2023/04/26 10:01:27;;;;;;;3.30;2.00;;;11.30;98.20;;;;;;5008953;28;20455;-74
2023/04/26 10:04:03;;;;;;;1.40;1.13;;;11.30;96.40;;;;;;5028231;28;20567;-74
2023/04/26 10:06:36;;;;;;;2.17;1.80;;;11.30;95.70;;;;;;5025996;28;20460;-74
2023/04/26 10:09:05;;;;;;;2.33;1.80;;;11.20;96.90;;;;;;5024436;28;20540;-74
2023/04/26 10:11:32;;;;;;;4.80;1.93;;;11.40;96.30;;;;;;4986612;28;20456;-75
2023/04/26 10:14:03;;;;;;;1.73;1.40;;;11.60;96.90;;;;;;5022586;28;20483;-75
2023/04/26 10:16:31;;;;;;;2.33;1.57;;;11.90;95.90;;;;;;5026821;28;20483;-74
2023/04/26 10:19:02;;;;;;;1.60;1.50;;;11.90;94.50;;;;;;5022817;28;20511;-74
2023/04/26 10:21:34;;;;;;;3.33;1.40;;;12.40;96.30;;;;;;5033465;28;20457;-75
2023/04/26 10:24:01;;;;;;;2.97;1.73;;;13.00;93.80;;;;;;5027149;28;20575;-74
2023/04/26 10:26:53;;;;;;;4.23;2.20;;;13.30;92.10;;;;;;5025545;28;20586;-75
2023/04/26 10:29:48;;;;;;;4.07;1.63;;;13.40;92.40;;;;;;5026339;28;20466;-74
2023/04/26 10:32:18;;;;;;;3.50;2.00;;;13.40;93.30;;;;;;5022417;28;20543;-75
2023/04/26 10:35:06;;;;;;;2.03;1.33;;;13.20;92.90;;;;;;5019260;28;20453;-74
2023/04/26 10:37:36;;;;;;;2.10;1.70;;;13.00;92.90;;;;;;5029922;28;20498;-75
2023/04/26 10:40:24;;;;;;;1.70;1.40;;;12.80;92.50;;;;;;5030602;28;20482;-72
2023/04/26 10:43:14;;;;;;;1.50;1.13;;;12.40;94.00;;;;;;5024591;28;20826;-74
2023/04/26 10:45:45;;;;;;;4.37;1.43;;;12.40;93.10;;;;;;5033741;28;20500;-75
2023/04/26 10:48:21;;;;;;;2.97;1.50;;;12.30;92.30;;;;;;5006708;28;20868;-75
2023/04/26 10:51:11;;;;;;;1.50;1.23;;;12.60;92.70;;;;;;5023530;28;20464;-74
2023/04/26 10:53:59;;;;;;;3.73;1.70;;;12.90;92.40;;;;;;5020210;28;20468;-75
2023/04/26 10:56:53;;;;;;;4.07;1.73;;;12.90;92.40;;;;;;5022287;28;20445;-75
2023/04/26 10:59:25;;;;;;;2.93;2.73;;;12.80;91.80;;;;;;5014272;28;20560;-74
2023/04/26 11:08:42;;;;;;;2.37;1.70;;;15.00;91.70;;;;;;5011787;28;20453;-75
2023/04/26 11:15:22;;;;;;;3.00;2.10;;;16.50;85.20;;;;;;5026242;28;20989;-75
2023/04/26 11:21:24;;;;;;;2.47;1.33;;;16.80;79.70;;;;;;4959138;28;20498;-74
2023/04/26 11:24:05;;;;;;;2.80;1.80;;;16.20;78.50;;;;;;4974897;28;20482;-75
2023/04/26 11:39:12;;;;;;;1.93;1.70;;;18.50;68.20;;;;;;4962874;28;20525;-75
2023/04/26 11:41:40;;;;;;;5.23;3.40;;;18.00;67.40;;;;;;4985371;28;20490;-73
2023/04/26 11:44:07;;;;;;;2.67;1.90;;;17.00;69.60;;;;;;4967241;28;20521;-76
2023/04/26 11:46:35;;;;;;;4.93;2.40;;;15.90;71.90;;;;;;4962345;28;21430;-75
2023/04/26 11:49:05;;;;;;;4.50;2.50;;;15.00;73.50;;;;;;4965511;28;20459;-75
2023/04/26 11:51:33;;;;;;;3.43;2.33;;;14.80;76.60;;;;;;4966244;28;20491;-74
2023/04/26 11:54:02;;;;;;;3.63;2.00;;;14.20;75.90;;;;;;4973578;28;20479;-75
2023/04/26 11:56:32;;;;;;;1.80;1.70;;;13.90;76.80;;;;;;4973318;28;20474;-74
2023/04/26 11:59:00;;;;;;;2.27;1.60;;;13.90;80.40;;;;;;5033844;28;21722;-73
2023/04/26 12:01:29;;;;;;;4.90;2.33;;;13.50;76.20;;;;;;5021840;28;20491;-74
2023/04/26 12:03:57;;;;;;;2.60;2.40;;;13.80;80.00;;;;;;5020394;28;20492;-74
2023/04/26 12:06:31;;;;;;;5.13;2.17;;;14.40;76.80;;;;;;5022327;28;21682;-74
2023/04/26 12:09:01;;;;;;;3.50;1.70;;;14.20;74.10;;;;;;5021056;28;20950;-74
2023/04/26 12:11:31;;;;;;;8.27;2.30;;;14.10;73.60;;;;;;4977139;28;20491;-75
2023/04/26 12:14:02;;;;;;;1.63;1.43;;;14.00;76.80;;;;;;4972422;28;20569;-74
2023/04/26 12:16:29;;;;;;;2.13;1.70;;;13.80;73.60;;;;;;5020556;28;21269;-75
2023/04/26 12:18:56;;;;;;;2.57;1.70;;;13.70;72.90;;;;;;5025475;28;20484;-73
2023/04/26 12:21:24;;;;;;;7.17;2.37;;;13.50;77.10;;;;;;5023382;28;20508;-76
2023/04/26 12:23:52;;;;;;;5.60;2.43;;;13.50;74.90;;;;;;5026075;28;20480;-73
2023/04/26 12:26:19;;;;;;;4.20;2.20;;;13.60;75.20;;;;;;4973787;28;20559;-75
2023/04/26 12:28:47;;;;;;;2.17;1.63;;;13.50;78.50;;;;;;5023139;28;21020;-75
2023/04/26 12:31:15;;;;;;;2.47;1.60;;;13.50;77.00;;;;;;5022864;28;20452;-74
2023/04/26 12:33:42;;;;;;;5.00;1.60;;;13.00;79.80;;;;;;5037351;28;20476;-74
2023/04/26 12:36:16;;;;;;;2.63;1.63;;;12.90;80.60;;;;;;5036545;28;20463;-75
2023/04/26 12:38:44;;;;;;;2.33;1.47;;;12.80;83.20;;;;;;5041938;28;20495;-72
2023/04/26 12:41:11;;;;;;;1.90;1.50;;;12.80;85.00;;;;;;5030991;28;20942;-75
2023/04/26 12:43:38;;;;;;;6.57;2.30;;;12.60;83.50;;;;;;5016529;28;20564;-77
2023/04/26 12:46:06;;;;;;;2.50;1.50;;;12.70;85.50;;;;;;5032752;28;20448;-75
2023/04/26 12:48:36;;;;;;;2.60;1.63;;;12.70;84.20;;;;;;5031637;28;20668;-74
2023/04/26 12:51:03;;;;;;;1.80;1.50;;;12.60;84.70;;;;;;5028119;28;20448;-74
2023/04/26 12:53:31;;;;;;;4.43;2.20;;;12.60;84.40;;;;;;5028538;28;20560;-75
2023/04/26 12:55:58;;;;;;;1.60;1.47;;;12.80;84.70;;;;;;5029212;28;20465;-75
2023/04/26 12:58:25;;;;;;;2.30;1.50;;;13.40;85.10;;;;;;5031808;28;20492;-75
2023/04/26 13:00:53;;;;;;;5.43;1.90;;;13.40;82.40;;;;;;5030266;28;20484;-76
2023/04/26 13:03:19;;;;;;;3.37;2.73;;;13.40;82.50;;;;;;5030148;28;21045;-75
2023/04/26 13:05:49;;;;;;;4.83;1.60;;;13.80;82.60;;;;;;5030214;28;20495;-75
2023/04/26 13:08:21;;;;;;;2.60;1.73;;;14.00;83.50;;;;;;5030401;28;20464;-75
2023/04/26 13:10:48;;;;;;;2.30;1.67;;;13.90;82.70;;;;;;5027907;28;20824;-74
2023/04/26 13:13:15;;;;;;;2.10;1.83;;;13.90;82.20;;;;;;5013084;28;20496;-75
2023/04/26 13:15:42;;;;;;;1.57;1.47;;;14.00;85.10;;;;;;5026587;28;20542;-75
2023/04/26 13:18:12;;;;;;;6.10;2.00;;;14.10;81.70;;;;;;5027806;28;20464;-75
2023/04/26 13:20:39;;;;;;;2.50;1.93;;;13.90;82.80;;;;;;5036257;28;20911;-76
2023/04/26 13:23:10;;;;;;;1.50;1.23;;;13.40;81.60;;;;;;5028457;28;20472;-75
2023/04/26 13:25:37;;;;;;;6.37;2.47;;;13.60;82.90;;;;;;5026779;28;20477;-75
2023/04/26 13:28:04;;;;;;;3.50;1.87;;;13.60;81.70;;;;;;5030315;28;20515;-72
2023/04/26 13:30:54;;;;;;;3.20;1.83;;;14.00;84.20;;;;;;5037368;28;20425;-75
2023/04/26 13:33:24;;;;;;;2.67;2.03;;;14.00;81.90;;;;;;4986988;28;20480;-75
2023/04/26 13:38:33;;;;;;;5.37;1.60;;;14.60;79.00;;;;;;5023048;28;20487;-75
2023/04/26 13:41:01;;;;;;;2.17;1.40;;;14.80;79.30;;;;;;5028191;28;20492;-75
2023/04/26 13:43:28;;;;;;;3.73;2.27;;;14.70;78.00;;;;;;5008029;28;20504;-75
2023/04/26 13:45:56;;;;;;;2.80;1.93;;;14.50;78.20;;;;;;5001167;28;20460;-75
2023/04/26 13:48:33;;;;;;;4.90;2.23;;;14.40;79.50;;;;;;5028675;28;20457;-76
2023/04/26 13:51:01;;;;;;;2.73;1.83;;;14.30;80.00;;;;;;5039414;28;20462;-76
2023/04/26 13:53:33;;;;;;;3.57;1.97;;;14.10;80.50;;;;;;4986830;28;20501;-74
2023/04/26 13:56:00;;;;;;;4.80;1.73;;;14.00;79.90;;;;;;5010419;28;20484;-74
2023/04/26 13:58:28;;;;;;;6.10;3.27;;;14.00;81.00;;;;;;5024014;28;20949;-75
2023/04/26 14:00:55;;;;;;;4.90;1.97;;;14.20;79.20;;;;;;5022472;28;20484;-72
2023/04/26 14:03:25;;;;;;;4.50;1.70;;;13.70;77.40;;;;;;5025161;28;20485;-75
2023/04/26 14:05:52;;;;;;;2.90;2.20;;;13.50;77.30;;;;;;5016114;28;20592;-75
2023/04/26 14:08:24;;;;;;;7.33;1.77;;;13.50;79.10;;;;;;5021919;28;20548;-75
2023/04/26 14:10:57;;;;;;;5.50;2.17;;;13.60;78.70;;;;;;5021981;28;20551;-75